Time;durP1;ratioP1;P1;durP2;ratioP2;P2;SDS_P1;SDS_P2;PMS_P1;PMS_P2;Temp;Humidity;BMP_temperature;BMP_pressure;BME280_temperature;BME280_humidity;BME280_pressure;Samples;Min_cycle;Max_cycle;Signal;HPM_P1;HPM_P2
2022/09/11 00:01:42;;;;;;;22.52;18.17;;;15.90;99.90;;;;;;5025627;28;20029;-65
2022/09/11 00:04:09;;;;;;;22.63;20.33;;;15.90;99.90;;;;;;5022787;28;20053;-65
2022/09/11 00:06:35;;;;;;;21.77;19.48;;;15.90;99.90;;;;;;5040887;28;20033;-66
2022/09/11 00:09:04;;;;;;;22.15;19.95;;;15.90;99.90;;;;;;5018111;28;20229;-65
2022/09/11 00:11:39;;;;;;;24.02;20.98;;;15.80;99.90;;;;;;5019595;28;20073;-65
2022/09/11 00:14:05;;;;;;;21.77;17.83;;;15.80;99.90;;;;;;5037543;28;20053;-65
2022/09/11 00:16:35;;;;;;;18.98;16.50;;;15.70;99.90;;;;;;5020204;28;20488;-65
2022/09/11 00:19:06;;;;;;;22.60;20.25;;;15.70;99.90;;;;;;5024510;28;20500;-65
2022/09/11 00:21:33;;;;;;;23.00;20.55;;;15.60;99.90;;;;;;5010209;28;20411;-65
2022/09/11 00:23:59;;;;;;;21.92;19.60;;;15.60;99.90;;;;;;5028056;28;20037;-65
2022/09/11 00:26:25;;;;;;;21.38;17.95;;;15.60;99.90;;;;;;5023562;28;20040;-65
2022/09/11 00:28:51;;;;;;;25.95;21.33;;;15.60;99.90;;;;;;5024278;28;20624;-65
2022/09/11 00:31:20;;;;;;;23.33;20.95;;;15.60;99.90;;;;;;5018165;28;20062;-65
2022/09/11 00:33:46;;;;;;;18.85;16.77;;;15.60;99.90;;;;;;5023150;28;20091;-65
2022/09/11 00:36:18;;;;;;;18.70;16.75;;;15.50;99.90;;;;;;5007645;28;20467;-65
2022/09/11 00:38:44;;;;;;;21.88;19.60;;;15.50;99.90;;;;;;5019802;28;20510;-65
2022/09/11 00:41:26;;;;;;;21.52;19.20;;;15.50;99.90;;;;;;5023027;28;20033;-65
2022/09/11 00:43:59;;;;;;;16.92;15.32;;;15.50;99.90;;;;;;5011234;28;20073;-65
2022/09/11 00:46:43;;;;;;;20.38;18.20;;;15.50;99.90;;;;;;5016326;28;20044;-65
2022/09/11 00:49:21;;;;;;;17.38;15.55;;;15.50;99.90;;;;;;5017964;28;20045;-65
2022/09/11 00:51:52;;;;;;;16.45;14.48;;;15.40;99.90;;;;;;5035758;28;20488;-65
2022/09/11 00:54:22;;;;;;;18.30;16.50;;;15.40;99.90;;;;;;5016656;28;20049;-65
2022/09/11 00:56:49;;;;;;;16.83;15.18;;;15.30;99.90;;;;;;5027526;28;20052;-66
2022/09/11 00:59:15;;;;;;;16.02;14.35;;;15.30;99.90;;;;;;5024488;28;20049;-65
2022/09/11 01:01:42;;;;;;;14.38;12.95;;;15.30;99.90;;;;;;5004777;28;20046;-64
2022/09/11 01:04:09;;;;;;;18.88;15.65;;;15.20;99.90;;;;;;5026312;28;20049;-64
2022/09/11 01:06:35;;;;;;;15.77;13.98;;;15.20;99.90;;;;;;5020768;28;20061;-64
2022/09/11 01:09:00;;;;;;;16.63;14.50;;;15.20;99.90;;;;;;4995433;28;20540;-64
2022/09/11 01:12:08;;;;;;;16.83;15.05;;;15.10;99.90;;;;;;5020232;28;20063;-64
2022/09/11 01:14:46;;;;;;;13.95;12.45;;;15.10;99.90;;;;;;4950193;28;20039;-64
2022/09/11 01:17:35;;;;;;;14.73;12.85;;;15.10;99.90;;;;;;4941977;28;20058;-64
2022/09/11 01:20:25;;;;;;;17.60;15.80;;;15.00;99.90;;;;;;5001434;28;20054;-64
2022/09/11 01:23:06;;;;;;;14.85;13.38;;;14.90;99.90;;;;;;5016905;28;20037;-64
2022/09/11 01:26:11;;;;;;;17.00;15.02;;;14.90;99.90;;;;;;5023093;28;20087;-64
2022/09/11 01:28:47;;;;;;;16.08;14.40;;;14.80;99.90;;;;;;5012588;28;20048;-64
2022/09/11 01:31:17;;;;;;;12.48;11.18;;;14.80;99.90;;;;;;5015841;28;20103;-64
2022/09/11 01:33:49;;;;;;;12.02;10.77;;;14.80;99.90;;;;;;5021589;28;20121;-64
2022/09/11 01:36:27;;;;;;;12.95;11.68;;;14.80;99.90;;;;;;5019480;28;20041;-64
2022/09/11 01:38:57;;;;;;;14.38;10.93;;;14.80;99.90;;;;;;5009748;28;20045;-64
2022/09/11 01:41:39;;;;;;;12.45;11.15;;;14.70;99.90;;;;;;5023879;28;20042;-64
2022/09/11 01:44:17;;;;;;;14.02;11.13;;;14.70;99.90;;;;;;5016203;28;20130;-64
2022/09/11 01:46:49;;;;;;;12.70;10.98;;;14.70;99.90;;;;;;5006686;28;20033;-64
2022/09/11 01:49:34;;;;;;;12.73;11.52;;;14.60;99.90;;;;;;5020626;28;20056;-64
2022/09/11 01:52:05;;;;;;;12.13;10.82;;;14.60;99.90;;;;;;5012901;28;20518;-64
2022/09/11 01:54:50;;;;;;;11.27;10.15;;;14.50;99.90;;;;;;5026550;28;20046;-64
2022/09/11 01:57:31;;;;;;;11.93;10.70;;;14.50;99.90;;;;;;5018389;28;20048;-64
2022/09/11 02:00:01;;;;;;;13.38;11.98;;;14.50;99.90;;;;;;5020337;28;20068;-64
2022/09/11 02:02:35;;;;;;;15.57;11.43;;;14.50;99.90;;;;;;5021765;28;20507;-64
2022/09/11 02:05:17;;;;;;;9.95;8.95;;;14.40;99.90;;;;;;5018416;28;20034;-64
2022/09/11 02:07:54;;;;;;;12.30;11.10;;;14.40;99.90;;;;;;5011293;28;20499;-65
2022/09/11 02:10:39;;;;;;;11.38;10.27;;;14.40;99.90;;;;;;5018409;28;20164;-64
2022/09/11 02:13:16;;;;;;;10.98;9.93;;;14.40;99.90;;;;;;5015581;28;20203;-64
2022/09/11 02:15:47;;;;;;;10.82;9.18;;;14.40;99.90;;;;;;5036728;28;20045;-64
2022/09/11 02:18:24;;;;;;;11.60;10.50;;;14.30;99.90;;;;;;5016886;28;20052;-64
2022/09/11 02:20:51;;;;;;;10.48;9.40;;;14.30;99.90;;;;;;5007515;28;20130;-64
2022/09/11 02:23:17;;;;;;;12.55;11.30;;;14.20;99.90;;;;;;4997225;28;20041;-64
2022/09/11 02:25:44;;;;;;;12.82;10.90;;;14.20;99.90;;;;;;5014858;28;20391;-64
2022/09/11 02:28:11;;;;;;;11.88;10.63;;;14.20;99.90;;;;;;5000243;28;20051;-64
2022/09/11 02:30:38;;;;;;;9.43;8.48;;;14.10;99.90;;;;;;5017938;28;20048;-64
2022/09/11 02:33:04;;;;;;;8.77;7.97;;;14.20;99.90;;;;;;5006051;28;20055;-64
2022/09/11 02:35:39;;;;;;;11.90;9.20;;;14.10;99.90;;;;;;5022307;28;20041;-63
2022/09/11 02:38:39;;;;;;;11.65;10.45;;;14.10;99.90;;;;;;5024396;28;20049;-64
2022/09/11 02:41:17;;;;;;;11.23;10.15;;;14.10;99.90;;;;;;5007276;28;20049;-63
2022/09/11 02:43:49;;;;;;;11.10;8.20;;;14.10;99.90;;;;;;5025016;28;20021;-64
2022/09/11 02:46:28;;;;;;;11.90;9.63;;;14.10;99.90;;;;;;5019664;28;20510;-64
2022/09/11 02:49:08;;;;;;;10.10;9.02;;;14.10;99.90;;;;;;5023010;28;20244;-63
2022/09/11 02:51:44;;;;;;;6.88;6.22;;;14.10;99.90;;;;;;5031034;28;20467;-64
2022/09/11 02:54:34;;;;;;;9.70;7.53;;;14.00;99.90;;;;;;5012729;28;20579;-64
2022/09/11 02:57:05;;;;;;;11.98;9.68;;;14.00;99.90;;;;;;5034985;28;20048;-64
2022/09/11 02:59:46;;;;;;;8.35;7.47;;;14.00;99.90;;;;;;5008559;28;20507;-64
2022/09/11 03:02:14;;;;;;;10.02;8.63;;;13.90;99.90;;;;;;5029078;28;20053;-64
2022/09/11 03:04:40;;;;;;;11.60;10.25;;;13.90;99.90;;;;;;5000700;28;20049;-64
2022/09/11 03:07:06;;;;;;;10.40;8.35;;;13.90;99.90;;;;;;5022854;28;20045;-64
2022/09/11 03:09:33;;;;;;;9.70;8.80;;;13.90;99.90;;;;;;5029346;28;20122;-63
2022/09/11 03:12:00;;;;;;;11.18;9.27;;;13.90;99.90;;;;;;5029419;28;20045;-64
2022/09/11 03:14:26;;;;;;;8.65;7.68;;;14.00;99.90;;;;;;5017138;28;20041;-64
2022/09/11 03:16:51;;;;;;;9.35;7.28;;;13.90;99.90;;;;;;5008640;28;20056;-64
2022/09/11 03:19:17;;;;;;;10.45;8.88;;;13.90;99.90;;;;;;5026730;28;20037;-64
2022/09/11 03:21:43;;;;;;;9.40;7.85;;;13.90;99.90;;;;;;5027476;28;20110;-64
2022/09/11 03:24:09;;;;;;;10.32;9.00;;;13.90;99.90;;;;;;5018146;28;20049;-64
2022/09/11 03:26:36;;;;;;;8.50;7.70;;;13.90;99.90;;;;;;5023558;28;20499;-64
2022/09/11 03:29:02;;;;;;;9.50;7.82;;;13.90;99.90;;;;;;5020892;28;20092;-64
2022/09/11 03:31:28;;;;;;;9.52;8.63;;;13.80;99.90;;;;;;5002161;28;20135;-64
2022/09/11 03:33:54;;;;;;;9.85;7.38;;;13.80;99.90;;;;;;5021983;28;20526;-64
2022/09/11 03:36:21;;;;;;;8.60;7.80;;;13.80;99.90;;;;;;5021222;28;20061;-64
2022/09/11 03:38:47;;;;;;;10.13;9.05;;;13.70;99.90;;;;;;5021155;28;20513;-64
2022/09/11 03:41:14;;;;;;;9.63;8.07;;;13.60;99.90;;;;;;5025270;28;20045;-64
2022/09/11 03:43:39;;;;;;;8.50;7.53;;;13.70;99.90;;;;;;5016676;28;20076;-64
2022/09/11 03:46:05;;;;;;;7.65;6.95;;;13.70;99.90;;;;;;5027408;28;20072;-64
2022/09/11 03:48:31;;;;;;;7.15;6.45;;;13.70;99.90;;;;;;5005650;28;20052;-64
2022/09/11 03:50:57;;;;;;;8.27;7.47;;;13.70;99.90;;;;;;5019074;28;20048;-64
2022/09/11 03:53:23;;;;;;;8.20;7.30;;;13.70;99.90;;;;;;5017693;28;20091;-64
2022/09/11 03:55:49;;;;;;;7.78;6.97;;;13.70;99.90;;;;;;5006264;28;20505;-64
2022/09/11 03:58:17;;;;;;;7.10;6.40;;;13.60;99.90;;;;;;5021126;28;20905;-63
2022/09/11 04:00:44;;;;;;;8.55;6.57;;;13.60;99.90;;;;;;5021431;28;20065;-64
2022/09/11 04:03:14;;;;;;;7.57;6.88;;;13.60;99.90;;;;;;5005955;28;20081;-64
2022/09/11 04:05:42;;;;;;;7.13;6.43;;;13.60;99.90;;;;;;5020210;28;20243;-64
2022/09/11 04:08:11;;;;;;;7.78;6.97;;;13.50;99.90;;;;;;5010461;28;20045;-64
2022/09/11 04:10:37;;;;;;;9.10;7.13;;;13.50;99.90;;;;;;5010421;28;20076;-64
2022/09/11 04:13:04;;;;;;;14.55;9.20;;;13.50;99.90;;;;;;5004870;28;20065;-64
2022/09/11 04:15:31;;;;;;;8.68;7.68;;;13.50;99.90;;;;;;5005245;28;20503;-63
2022/09/11 04:17:57;;;;;;;8.70;6.97;;;13.40;99.90;;;;;;5019831;28;20124;-63
2022/09/11 04:20:23;;;;;;;7.43;6.45;;;13.40;99.90;;;;;;5022684;28;20464;-64
2022/09/11 04:22:49;;;;;;;7.18;6.45;;;13.40;99.90;;;;;;5002810;28;20041;-63
2022/09/11 04:25:15;;;;;;;6.50;5.90;;;13.40;99.90;;;;;;5013714;28;20925;-63
2022/09/11 04:27:41;;;;;;;8.48;6.63;;;13.40;99.90;;;;;;5007189;28;20052;-64
2022/09/11 04:30:07;;;;;;;7.40;5.70;;;13.40;99.90;;;;;;5016911;28;20142;-63
2022/09/11 04:32:33;;;;;;;5.85;5.30;;;13.40;99.90;;;;;;5019224;28;20079;-63
2022/09/11 04:35:00;;;;;;;5.30;4.75;;;13.40;99.90;;;;;;5016926;28;20037;-63
2022/09/11 04:37:27;;;;;;;8.18;6.28;;;13.40;99.90;;;;;;5004526;28;20135;-63
2022/09/11 04:39:53;;;;;;;5.60;5.10;;;13.30;99.90;;;;;;5032797;23;20045;-61
2022/09/11 04:42:19;;;;;;;6.68;5.82;;;13.30;99.90;;;;;;5020071;28;20038;-62
2022/09/11 04:44:45;;;;;;;9.68;6.95;;;13.30;99.90;;;;;;4948773;28;20088;-62
2022/09/11 04:47:11;;;;;;;8.85;6.43;;;13.30;99.90;;;;;;4991505;28;20113;-62
2022/09/11 04:49:37;;;;;;;11.85;7.03;;;13.30;99.90;;;;;;4973968;28;20548;-62
2022/09/11 04:52:05;;;;;;;14.20;8.10;;;13.30;99.90;;;;;;4974342;28;20121;-62
2022/09/11 04:54:32;;;;;;;10.52;7.70;;;13.20;99.90;;;;;;4979683;28;20115;-61
2022/09/11 04:57:00;;;;;;;7.15;6.43;;;13.20;99.90;;;;;;4993935;28;20489;-62
2022/09/11 04:59:26;;;;;;;8.73;7.32;;;13.20;99.90;;;;;;4989176;28;20074;-62
2022/09/11 05:01:53;;;;;;;8.50;7.32;;;13.10;99.90;;;;;;5004932;28;20069;-62
2022/09/11 05:04:19;;;;;;;9.82;7.68;;;13.10;99.90;;;;;;4992289;28;20057;-61
2022/09/11 05:06:47;;;;;;;8.50;7.00;;;13.10;99.90;;;;;;4974407;28;20500;-61
2022/09/11 05:09:14;;;;;;;8.05;6.55;;;13.10;99.90;;;;;;4973492;28;20053;-61
2022/09/11 05:11:40;;;;;;;10.35;7.15;;;13.10;99.90;;;;;;4973965;28;20425;-62
2022/09/11 05:14:07;;;;;;;7.15;6.25;;;13.10;99.90;;;;;;4990751;28;20049;-62
2022/09/11 05:16:33;;;;;;;9.25;6.78;;;13.10;99.90;;;;;;4974470;28;20038;-62
2022/09/11 05:19:00;;;;;;;12.38;8.75;;;13.10;99.90;;;;;;4991376;28;20038;-62
2022/09/11 05:21:27;;;;;;;9.80;8.15;;;13.10;99.90;;;;;;4973180;28;20043;-62
2022/09/11 05:23:57;;;;;;;10.98;8.35;;;13.10;99.90;;;;;;4973187;28;20473;-62
2022/09/11 05:26:25;;;;;;;8.68;7.82;;;13.20;99.90;;;;;;4974635;28;20053;-61
2022/09/11 05:28:56;;;;;;;10.13;8.63;;;13.20;99.90;;;;;;4992263;28;20124;-61
2022/09/11 05:31:24;;;;;;;10.43;8.90;;;13.20;99.90;;;;;;5010217;28;20049;-61
2022/09/11 05:33:51;;;;;;;8.80;7.90;;;13.20;99.90;;;;;;5004814;28;20493;-61
2022/09/11 05:36:17;;;;;;;11.48;9.45;;;13.20;99.90;;;;;;4975892;28;20088;-61
2022/09/11 05:38:43;;;;;;;10.05;9.05;;;13.20;99.90;;;;;;4990254;28;20034;-61
2022/09/11 05:41:11;;;;;;;8.43;7.63;;;13.20;99.90;;;;;;4973338;28;20046;-61
2022/09/11 05:43:38;;;;;;;10.07;8.50;;;13.30;99.90;;;;;;4990413;28;20505;-61
2022/09/11 05:46:06;;;;;;;9.45;8.50;;;13.30;99.90;;;;;;4972961;28;20046;-61
2022/09/11 05:48:35;;;;;;;8.95;8.05;;;13.30;99.90;;;;;;4992169;28;20501;-61
2022/09/11 05:51:06;;;;;;;8.00;7.20;;;13.40;99.90;;;;;;4992465;28;20057;-61
2022/09/11 05:53:32;;;;;;;8.48;7.68;;;13.40;99.90;;;;;;4988061;28;20504;-61
2022/09/11 05:56:05;;;;;;;9.93;8.30;;;13.50;99.90;;;;;;4971137;28;20120;-61
2022/09/11 05:58:31;;;;;;;7.85;7.05;;;13.50;99.90;;;;;;4992363;28;20045;-62
2022/09/11 06:01:06;;;;;;;8.13;7.32;;;13.60;99.90;;;;;;4992451;28;20049;-61
2022/09/11 06:03:32;;;;;;;8.50;7.18;;;13.60;99.90;;;;;;4984146;28;20050;-62
2022/09/11 06:06:02;;;;;;;9.57;8.50;;;13.70;99.90;;;;;;4997737;28;20044;-62
2022/09/11 06:08:29;;;;;;;11.32;10.13;;;13.80;99.90;;;;;;4996152;28;20212;-61
2022/09/11 06:10:57;;;;;;;10.25;9.25;;;13.80;99.90;;;;;;5013843;28;20424;-62
2022/09/11 06:13:24;;;;;;;9.65;8.75;;;13.80;99.90;;;;;;4995964;28;20064;-61
2022/09/11 06:15:50;;;;;;;9.00;8.10;;;13.90;99.90;;;;;;5013606;28;20076;-61
2022/09/11 06:18:16;;;;;;;9.13;7.07;;;13.90;99.90;;;;;;4995294;28;20041;-62
2022/09/11 06:20:43;;;;;;;10.60;9.45;;;14.00;99.90;;;;;;4963246;28;20038;-60
2022/09/11 06:23:10;;;;;;;9.77;8.77;;;14.10;99.90;;;;;;4976023;28;20054;-62
2022/09/11 06:25:36;;;;;;;10.95;9.75;;;14.10;99.90;;;;;;4993533;28;20057;-62
2022/09/11 06:28:02;;;;;;;11.98;10.77;;;14.20;99.90;;;;;;4980605;28;20413;-61
2022/09/11 06:30:28;;;;;;;11.95;10.75;;;14.30;99.90;;;;;;4959710;28;20046;-62
2022/09/11 06:32:55;;;;;;;12.25;11.05;;;14.30;99.90;;;;;;4973732;28;20550;-62
2022/09/11 06:35:25;;;;;;;12.35;11.02;;;14.30;99.90;;;;;;4957581;28;20134;-63
2022/09/11 06:37:50;;;;;;;12.35;11.07;;;14.40;99.90;;;;;;4991984;28;20042;-60
2022/09/11 06:40:17;;;;;;;11.65;10.38;;;14.50;99.90;;;;;;4995940;28;20039;-61
2022/09/11 06:42:42;;;;;;;13.45;12.10;;;14.50;99.90;;;;;;4978377;28;20547;-61
2022/09/11 06:45:09;;;;;;;13.77;12.05;;;14.70;99.90;;;;;;4965376;28;20054;-62
2022/09/11 06:47:34;;;;;;;14.82;12.82;;;14.80;99.90;;;;;;4978349;28;20564;-61
2022/09/11 06:50:00;;;;;;;13.05;11.75;;;14.90;99.90;;;;;;4992772;28;20129;-62
2022/09/11 06:52:26;;;;;;;14.68;13.13;;;15.10;99.90;;;;;;4970070;28;20113;-62
2022/09/11 06:54:52;;;;;;;13.98;12.65;;;15.20;99.90;;;;;;4983052;28;20485;-62
2022/09/11 06:57:18;;;;;;;12.52;11.23;;;15.40;99.90;;;;;;4987970;28;20048;-62
2022/09/11 06:59:44;;;;;;;15.43;13.70;;;15.40;99.90;;;;;;4975559;28;20143;-61
2022/09/11 07:02:10;;;;;;;16.13;14.18;;;15.50;99.90;;;;;;4975539;28;20429;-61
2022/09/11 07:04:36;;;;;;;17.05;15.40;;;15.60;99.90;;;;;;4991341;28;20109;-61
2022/09/11 07:07:01;;;;;;;16.33;13.60;;;15.70;99.90;;;;;;4991770;28;20074;-61
2022/09/11 07:09:27;;;;;;;15.13;13.35;;;15.70;99.90;;;;;;4971720;28;20050;-61
2022/09/11 07:11:53;;;;;;;14.48;12.98;;;15.80;99.90;;;;;;4961345;28;20057;-61
2022/09/11 07:14:22;;;;;;;17.55;14.77;;;15.80;99.90;;;;;;4959843;28;20405;-61
2022/09/11 07:16:54;;;;;;;14.45;13.00;;;15.90;99.90;;;;;;4955910;28;20110;-61
2022/09/11 07:19:23;;;;;;;15.40;13.68;;;16.10;99.90;;;;;;4994581;28;20042;-61
2022/09/11 07:21:49;;;;;;;16.60;13.95;;;16.30;99.90;;;;;;4976916;28;20038;-61
2022/09/11 07:24:15;;;;;;;21.05;13.05;;;16.40;99.90;;;;;;4959099;28;20423;-61
2022/09/11 07:26:40;;;;;;;15.70;12.45;;;16.60;99.90;;;;;;4996473;28;20053;-62
2022/09/11 07:29:06;;;;;;;12.60;11.40;;;16.70;99.90;;;;;;4973237;28;20434;-62
2022/09/11 07:31:33;;;;;;;13.65;11.60;;;16.80;99.90;;;;;;4966184;28;20180;-61
2022/09/11 07:33:59;;;;;;;14.77;12.02;;;16.90;99.90;;;;;;4958303;28;20683;-62
2022/09/11 07:36:27;;;;;;;12.60;11.25;;;17.00;99.90;;;;;;4964401;28;20452;-61
2022/09/11 07:38:53;;;;;;;11.60;10.18;;;17.20;99.90;;;;;;4998295;28;20793;-61
2022/09/11 07:41:21;;;;;;;13.40;12.10;;;17.40;99.90;;;;;;4987542;28;20034;-61
2022/09/11 07:43:51;;;;;;;11.95;10.65;;;17.50;99.90;;;;;;4997695;28;20041;-61
2022/09/11 07:46:17;;;;;;;13.63;10.85;;;17.60;99.90;;;;;;4972435;28;20100;-61
2022/09/11 07:48:43;;;;;;;11.27;10.13;;;17.70;99.90;;;;;;4975290;28;20453;-61
2022/09/11 07:51:12;;;;;;;11.00;9.13;;;17.80;99.90;;;;;;4981426;28;20148;-62
2022/09/11 07:53:40;;;;;;;10.52;9.07;;;18.00;99.90;;;;;;4979094;28;20116;-62
2022/09/11 07:56:11;;;;;;;10.82;9.10;;;18.10;99.90;;;;;;4985536;28;20437;-62
2022/09/11 07:58:39;;;;;;;9.23;7.93;;;18.20;99.90;;;;;;4976671;28;20486;-61
2022/09/11 08:01:06;;;;;;;11.02;7.68;;;18.40;99.90;;;;;;4977521;28;20046;-62
2022/09/11 08:03:33;;;;;;;11.63;7.03;;;18.50;99.90;;;;;;4963460;28;20556;-62
2022/09/11 08:06:02;;;;;;;9.63;6.75;;;18.60;99.90;;;;;;4947589;28;20046;-59
2022/09/11 08:08:28;;;;;;;7.55;6.85;;;18.70;99.90;;;;;;4953576;28;20489;-59
2022/09/11 08:11:05;;;;;;;7.05;6.07;;;18.80;99.90;;;;;;4960411;28;20072;-58
2022/09/11 08:13:32;;;;;;;9.02;6.25;;;18.90;99.90;;;;;;4936715;28;20058;-58
2022/09/11 08:15:58;;;;;;;8.15;6.60;;;19.00;99.90;;;;;;4971282;28;20234;-58
2022/09/11 08:18:24;;;;;;;10.18;7.65;;;19.00;99.90;;;;;;4969933;28;20568;-59
2022/09/11 08:20:50;;;;;;;7.97;6.53;;;18.90;99.90;;;;;;4966966;28;20066;-59
2022/09/11 08:23:16;;;;;;;8.38;7.20;;;18.90;99.90;;;;;;4956825;28;20050;-58
2022/09/11 08:25:43;;;;;;;6.95;5.68;;;18.60;99.90;;;;;;4944582;28;20038;-59
2022/09/11 08:28:10;;;;;;;5.93;5.07;;;18.50;99.90;;;;;;4962778;28;20099;-59
2022/09/11 08:30:37;;;;;;;9.77;5.68;;;18.50;99.90;;;;;;4935789;28;20050;-60
2022/09/11 08:33:05;;;;;;;6.80;5.25;;;18.50;99.90;;;;;;4946332;28;20205;-59
2022/09/11 08:38:06;;;;;;;7.72;5.20;;;18.90;99.90;;;;;;5178144;23;20121;-61
2022/09/11 08:40:37;;;;;;;11.75;7.13;;;19.10;99.90;;;;;;4982791;28;20493;-60
2022/09/11 08:43:04;;;;;;;8.88;6.22;;;19.20;99.90;;;;;;4966459;28;20074;-60
2022/09/11 08:45:34;;;;;;;7.68;6.28;;;19.40;99.90;;;;;;4974631;28;20046;-60
2022/09/11 08:48:00;;;;;;;7.93;5.20;;;19.50;99.90;;;;;;4943318;28;20043;-60
2022/09/11 08:50:38;;;;;;;6.28;5.53;;;19.50;99.90;;;;;;4981659;28;20116;-59
2022/09/11 08:53:07;;;;;;;8.30;5.30;;;19.70;99.90;;;;;;4984644;28;20058;-59
2022/09/11 08:55:44;;;;;;;5.47;4.07;;;19.90;99.90;;;;;;4972468;28;20113;-59
2022/09/11 08:58:28;;;;;;;7.43;5.25;;;19.80;99.90;;;;;;4988107;28;20804;-59
2022/09/11 09:01:11;;;;;;;7.43;5.45;;;19.80;99.90;;;;;;4981542;28;20042;-59
2022/09/11 09:03:55;;;;;;;5.27;4.73;;;19.80;99.90;;;;;;4983671;28;20099;-59
2022/09/11 09:06:39;;;;;;;8.25;5.20;;;19.70;99.90;;;;;;4961114;28;20038;-59
2022/09/11 09:09:11;;;;;;;;;;;19.70;99.90;;;;;;4984051;28;20046;-59
2022/09/11 09:12:02;;;;;;;8.18;5.05;;;19.60;99.90;;;;;;4982446;28;20116;-59
2022/09/11 09:14:56;;;;;;;6.43;4.57;;;19.60;99.90;;;;;;4970686;28;20133;-59
2022/09/11 09:17:37;;;;;;;8.15;5.35;;;19.60;99.90;;;;;;4975186;28;20042;-60
2022/09/11 09:20:40;;;;;;;7.20;4.65;;;19.80;99.90;;;;;;4977941;28;20101;-59
2022/09/11 09:23:20;;;;;;;5.85;4.00;;;20.00;99.90;;;;;;4946097;28;20054;-59
2022/09/11 09:25:47;;;;;;;5.72;3.53;;;20.30;99.90;;;;;;4981052;28;20387;-59
2022/09/11 09:28:24;;;;;;;6.63;3.85;;;20.40;99.90;;;;;;4981404;28;20058;-59
2022/09/11 09:30:58;;;;;;;4.25;2.97;;;20.60;99.90;;;;;;4975969;28;20062;-59
2022/09/11 09:33:46;;;;;;;5.60;2.80;;;20.80;99.90;;;;;;4985089;28;20049;-59
2022/09/11 09:36:44;;;;;;;4.35;3.30;;;20.80;99.90;;;;;;4985329;28;20042;-60
2022/09/11 09:39:14;;;;;;;5.18;2.33;;;20.80;99.90;;;;;;4985772;28;20030;-60
2022/09/11 09:41:59;;;;;;;5.53;2.60;;;20.80;99.90;;;;;;4980716;28;20060;-60
2022/09/11 09:44:39;;;;;;;4.03;2.05;;;20.60;99.90;;;;;;4968479;28;20577;-60
2022/09/11 09:47:10;;;;;;;3.35;1.90;;;20.60;99.90;;;;;;4982010;28;20056;-60
2022/09/11 09:49:37;;;;;;;5.20;2.97;;;20.60;99.90;;;;;;4983498;28;20406;-60
2022/09/11 09:52:24;;;;;;;3.80;2.33;;;20.50;99.90;;;;;;4967584;28;20425;-60
2022/09/11 09:55:00;;;;;;;5.80;2.75;;;20.50;99.90;;;;;;4964235;28;20065;-59
2022/09/11 09:57:38;;;;;;;4.47;2.80;;;20.40;99.90;;;;;;4986277;28;20225;-60
2022/09/11 10:00:24;;;;;;;7.88;3.92;;;20.40;99.90;;;;;;4962346;28;20050;-59
2022/09/11 10:02:56;;;;;;;6.03;2.88;;;20.30;99.90;;;;;;4984096;28;20112;-59
2022/09/11 10:05:26;;;;;;;4.72;2.88;;;20.40;99.90;;;;;;4955319;28;20073;-59
2022/09/11 10:07:55;;;;;;;5.40;3.00;;;20.60;99.90;;;;;;4969590;28;20097;-59
2022/09/11 10:10:24;;;;;;;4.85;2.42;;;21.00;99.90;;;;;;4955110;28;20097;-59
2022/09/11 10:12:49;;;;;;;4.25;2.53;;;21.30;99.90;;;;;;4954112;28;20081;-60
2022/09/11 10:15:24;;;;;;;6.55;2.83;;;21.50;99.90;;;;;;4960274;28;20100;-60
2022/09/11 10:17:55;;;;;;;4.47;2.42;;;21.70;99.90;;;;;;4947074;28;20077;-60
2022/09/11 10:20:25;;;;;;;6.60;2.97;;;21.70;99.90;;;;;;4951173;28;20046;-60
2022/09/11 10:22:54;;;;;;;4.00;2.25;;;21.70;99.90;;;;;;4962610;28;20108;-59
2022/09/11 10:25:25;;;;;;;6.03;2.80;;;21.90;99.90;;;;;;4973950;28;20070;-60
2022/09/11 10:28:10;;;;;;;6.82;2.22;;;21.90;99.90;;;;;;4959470;28;20049;-60
2022/09/11 10:30:58;;;;;;;5.65;2.10;;;22.00;99.90;;;;;;4956057;28;20175;-60
2022/09/11 10:47:41;;;;;;;5.82;2.75;;;21.20;99.90;;;;;;5898918;23;20042;-85
2022/09/11 10:50:21;;;;;;;5.35;2.58;;;21.30;99.90;;;;;;4957698;23;20389;-61
2022/09/11 10:53:14;;;;;;;4.65;2.35;;;21.10;99.90;;;;;;4974374;28;20480;-60
2022/09/11 10:55:44;;;;;;;4.35;2.60;;;21.10;99.90;;;;;;4974069;28;20054;-61
2022/09/11 10:58:16;;;;;;;5.30;2.53;;;21.10;99.90;;;;;;4974335;28;20054;-59
2022/09/11 11:00:41;;;;;;;4.25;2.65;;;21.20;99.90;;;;;;4974627;28;20039;-61
2022/09/11 11:03:16;;;;;;;3.75;2.40;;;21.40;99.90;;;;;;4975100;28;20053;-61
2022/09/11 11:06:18;;;;;;;4.68;2.63;;;21.70;99.90;;;;;;4974705;28;20070;-60
2022/09/11 11:08:47;;;;;;;4.97;2.70;;;21.80;99.40;;;;;;4974360;28;20379;-61
2022/09/11 11:11:31;;;;;;;4.15;2.20;;;22.00;99.90;;;;;;4973750;28;20405;-59
2022/09/11 11:14:23;;;;;;;3.45;2.20;;;22.00;98.90;;;;;;4971685;28;20378;-58
2022/09/11 11:16:54;;;;;;;2.70;1.70;;;22.10;98.90;;;;;;4973735;28;20046;-62
2022/09/11 11:19:39;;;;;;;4.05;1.95;;;22.30;99.10;;;;;;4974192;28;20489;-61
2022/09/11 11:25:53;;;;;;;3.33;1.83;;;23.00;99.40;;;;;;4973483;28;20078;-61
2022/09/11 11:28:30;;;;;;;3.28;1.50;;;23.30;98.60;;;;;;4973392;28;20050;-61
2022/09/11 11:31:08;;;;;;;3.97;1.77;;;23.60;98.10;;;;;;4972291;28;20045;-61
2022/09/11 11:33:46;;;;;;;2.97;1.65;;;23.60;96.50;;;;;;4973804;28;20049;-61
2022/09/11 11:36:18;;;;;;;2.58;1.92;;;23.70;97.30;;;;;;4971495;28;20042;-62
2022/09/11 11:39:00;;;;;;;2.60;1.65;;;24.00;96.90;;;;;;4973307;28;20491;-61
2022/09/11 11:41:33;;;;;;;2.28;1.60;;;23.90;94.80;;;;;;4971949;28;20050;-60
2022/09/11 11:44:03;;;;;;;3.28;1.70;;;23.90;95.90;;;;;;4973122;28;20482;-60
2022/09/11 11:46:44;;;;;;;4.35;2.17;;;23.90;95.70;;;;;;4988611;28;20129;-59
2022/09/11 11:49:19;;;;;;;3.75;1.90;;;23.90;95.60;;;;;;4972929;28;20425;-61
2022/09/11 11:52:02;;;;;;;4.32;2.50;;;23.60;96.50;;;;;;4973242;28;20043;-61
2022/09/11 11:54:35;;;;;;;5.63;2.30;;;23.60;97.00;;;;;;4971367;28;20054;-60
2022/09/11 12:02:10;;;;;;;3.80;2.10;;;23.00;97.30;;;;;;4981600;28;20413;-57
2022/09/11 12:04:53;;;;;;;2.50;1.90;;;22.80;97.30;;;;;;4978156;28;20046;-57
2022/09/11 12:07:26;;;;;;;3.90;2.25;;;22.60;97.50;;;;;;4990878;28;20455;-58
2022/09/11 12:09:57;;;;;;;3.38;2.00;;;22.50;98.00;;;;;;4972556;28;20057;-58
2022/09/11 12:12:26;;;;;;;4.20;1.95;;;22.40;98.00;;;;;;4973627;28;20529;-57
2022/09/11 12:15:05;;;;;;;6.35;1.85;;;22.40;98.20;;;;;;4983680;28;20038;-58
2022/09/11 12:17:33;;;;;;;4.43;2.35;;;22.30;98.00;;;;;;4980233;28;20125;-57
2022/09/11 12:20:11;;;;;;;3.15;2.00;;;22.40;98.00;;;;;;4980600;28;20050;-59
2022/09/11 12:22:47;;;;;;;2.63;1.55;;;22.80;98.00;;;;;;4993701;23;21026;-59
2022/09/11 12:25:22;;;;;;;3.38;1.85;;;23.20;98.00;;;;;;4989544;28;20133;-59
2022/09/11 12:27:47;;;;;;;3.08;1.58;;;23.60;95.80;;;;;;4984905;28;20504;-58
2022/09/11 12:30:16;;;;;;;2.72;1.60;;;23.70;95.80;;;;;;4985022;28;20056;-59
2022/09/11 12:32:50;;;;;;;2.42;1.67;;;23.60;94.30;;;;;;4980600;28;20049;-59
2022/09/11 12:35:42;;;;;;;3.92;1.48;;;23.60;95.40;;;;;;4980861;28;20041;-59
2022/09/11 12:38:08;;;;;;;3.15;1.40;;;24.10;94.60;;;;;;4986124;28;20077;-59
2022/09/11 12:40:38;;;;;;;1.20;1.10;;;24.10;94.00;;;;;;4983481;28;20046;-59
2022/09/11 12:43:36;;;;;;;3.05;1.30;;;24.30;94.40;;;;;;4978793;28;20260;-59
2022/09/11 12:46:04;;;;;;;2.63;1.30;;;24.60;93.70;;;;;;4958607;28;20041;-59
2022/09/11 12:48:42;;;;;;;1.40;1.15;;;24.80;94.00;;;;;;4989855;28;20187;-59
2022/09/11 12:51:21;;;;;;;3.40;1.60;;;24.50;91.90;;;;;;4985130;28;20459;-59
2022/09/11 12:53:52;;;;;;;3.58;1.63;;;24.30;93.90;;;;;;4987870;28;20045;-59
2022/09/11 12:56:24;;;;;;;2.65;1.77;;;24.20;94.50;;;;;;4990342;28;20141;-59
2022/09/11 12:59:09;;;;;;;3.60;1.90;;;23.90;94.80;;;;;;4988784;28;20042;-59
2022/09/11 13:01:43;;;;;;;2.88;1.90;;;23.60;94.70;;;;;;4995432;28;20037;-59
2022/09/11 13:04:08;;;;;;;2.88;1.83;;;23.30;95.60;;;;;;4992183;28;20053;-60
2022/09/11 13:06:51;;;;;;;4.18;2.13;;;23.00;96.00;;;;;;4984565;28;20038;-59
2022/09/11 13:09:25;;;;;;;4.73;2.27;;;22.70;96.30;;;;;;4971388;28;20188;-59
2022/09/11 13:11:52;;;;;;;;;;;22.60;97.10;;;;;;4986407;28;20085;-60
2022/09/11 13:14:26;;;;;;;3.40;1.73;;;22.50;97.20;;;;;;4976943;28;19928;-59
2022/09/11 13:16:53;;;;;;;3.67;2.10;;;22.50;97.50;;;;;;4990632;28;20065;-60
2022/09/11 13:19:19;;;;;;;3.55;2.35;;;22.50;97.60;;;;;;4996855;28;20079;-59
2022/09/11 13:21:48;;;;;;;3.72;2.30;;;22.40;97.40;;;;;;4996137;28;20554;-60
2022/09/11 13:24:24;;;;;;;4.50;2.65;;;22.30;97.30;;;;;;4998290;28;20466;-59
2022/09/11 13:26:58;;;;;;;3.95;2.25;;;22.30;97.70;;;;;;4995125;28;20056;-60
2022/09/11 13:29:28;;;;;;;5.45;2.45;;;22.40;97.70;;;;;;4994965;28;20042;-60